createdAt,value
2023-05-10T16:47:14.760Z,80.61
2023-05-10T16:48:14.649Z,80.51
2023-05-10T16:49:14.652Z,80.80
2023-05-10T16:50:14.660Z,80.80
2023-05-10T16:51:14.673Z,80.13
2023-05-10T16:52:14.679Z,80.71
2023-05-10T16:53:14.721Z,80.42
2023-05-10T16:54:14.712Z,80.04
2023-05-10T16:55:14.904Z,80.04
2023-05-10T16:56:14.710Z,80.13
2023-05-10T16:57:14.721Z,80.42
2023-05-10T16:58:14.741Z,80.42
2023-05-10T16:59:14.740Z,80.32
2023-05-10T17:00:14.744Z,80.51
2023-05-10T17:01:14.800Z,80.32
2023-05-10T17:02:14.833Z,80.32
2023-05-10T17:03:14.962Z,80.32
2023-05-10T17:04:14.872Z,80.13
2023-05-10T17:05:14.863Z,80.22
2023-05-10T17:06:14.820Z,80.22
2023-05-10T17:07:15.631Z,80.22
2023-05-10T17:08:14.834Z,80.13
2023-05-10T17:09:14.844Z,80.13
2023-05-10T17:10:14.856Z,80.22
2023-05-10T17:11:14.867Z,80.13
2023-05-10T17:12:14.868Z,80.32
2023-05-10T17:13:14.881Z,80.42
2023-05-10T17:14:14.892Z,80.42
2023-05-10T17:15:15.036Z,80.42
2023-05-10T17:16:15.003Z,80.22
2023-05-10T17:17:14.925Z,80.13
2023-05-10T17:18:14.932Z,80.22
2023-05-10T17:19:14.972Z,80.61
2023-05-10T17:20:14.964Z,80.71
2023-05-10T17:21:14.954Z,80.71
2023-05-10T17:22:14.978Z,80.51
2023-05-10T17:23:14.982Z,80.61
2023-05-10T17:24:15.005Z,80.71
2023-05-10T17:25:15.183Z,81.19
2023-05-10T17:26:15.010Z,81.38
2023-05-10T17:27:15.218Z,81.57
2023-05-10T17:28:15.033Z,81.67
2023-05-10T17:29:15.036Z,81.28
2023-05-10T17:30:15.050Z,81.38
2023-05-10T17:31:15.145Z,81.28
2023-05-10T17:32:15.089Z,81.38
2023-05-10T17:33:15.085Z,81.28
2023-05-10T17:34:15.086Z,81.43
2023-05-10T17:35:15.235Z,81.34
2023-05-10T17:36:17.724Z,81.53
2023-05-10T17:37:15.124Z,81.34
2023-05-10T17:38:15.121Z,81.53
2023-05-10T17:39:15.146Z,81.24
2023-05-10T17:40:15.148Z,81.05
2023-05-10T17:41:15.359Z,81.72
2023-05-10T17:42:15.174Z,81.63
2023-05-10T17:43:15.179Z,81.72
2023-05-10T17:44:15.180Z,81.24
2023-05-10T17:45:15.455Z,81.53
2023-05-10T17:46:15.228Z,81.43
2023-05-10T17:47:15.219Z,81.72
2023-05-10T17:48:15.232Z,81.43
2023-05-10T17:49:15.279Z,81.43
2023-05-10T17:50:15.245Z,81.43
2023-05-10T17:51:15.286Z,81.53
2023-05-10T17:52:15.264Z,81.53
2023-05-10T17:53:15.278Z,82.01
2023-05-10T17:54:15.285Z,81.63
2023-05-10T17:55:15.476Z,81.92
2023-05-10T17:56:15.301Z,81.82
2023-05-10T17:57:15.305Z,82.20
2023-05-10T17:58:15.319Z,81.92
2023-05-10T17:59:15.324Z,82.59
2023-05-10T18:00:15.339Z,82.30
2023-05-10T18:01:15.393Z,82.40
2023-05-10T18:02:15.360Z,82.68
2023-05-10T18:03:15.362Z,82.68
2023-05-10T18:04:15.401Z,82.49
2023-05-10T18:05:15.659Z,82.59
2023-05-10T18:06:15.393Z,82.45
2023-05-10T18:07:15.445Z,82.64
2023-05-10T18:08:15.409Z,82.40
2023-05-10T18:09:15.416Z,82.64
2023-05-10T18:10:15.453Z,82.54
2023-05-10T18:11:15.439Z,82.68
2023-05-10T18:12:15.452Z,82.84
2023-05-10T18:13:15.461Z,82.93
2023-05-10T18:14:20.577Z,82.93
2023-05-10T18:15:15.584Z,82.54
2023-05-10T18:16:15.493Z,82.64
2023-05-10T18:17:15.488Z,83.03
2023-05-10T18:18:15.498Z,83.41
2023-05-10T18:19:15.518Z,82.84
2023-05-10T18:20:15.554Z,82.84
2023-05-10T18:21:15.527Z,82.93
2023-05-10T18:22:15.740Z,83.41
2023-05-10T18:23:15.573Z,83.41
2023-05-10T18:24:16.867Z,83.12
2023-05-10T18:25:15.673Z,83.22
2023-05-10T18:26:15.575Z,83.51
2023-05-10T18:27:15.576Z,83.31
2023-05-10T18:28:15.593Z,84.08
2023-05-10T18:29:15.612Z,83.60
2023-05-10T18:30:15.617Z,83.98
2023-05-10T18:31:15.661Z,83.70
2023-05-10T18:32:15.829Z,83.51
2023-05-10T18:33:15.632Z,83.41
2023-05-10T18:34:15.653Z,83.89
2023-05-10T18:35:15.676Z,83.98
2023-05-10T18:36:15.683Z,83.98
2023-05-10T18:37:15.676Z,83.80
2023-05-10T18:38:15.685Z,84.18
2023-05-10T18:39:15.717Z,83.98
2023-05-10T18:40:15.708Z,84.37
2023-05-10T18:41:15.715Z,84.23
2023-05-10T18:42:15.721Z,84.71
2023-05-10T18:43:15.721Z,84.33
2023-05-10T18:44:15.728Z,84.61
2023-05-10T18:45:16.017Z,84.61
2023-05-10T18:46:15.774Z,84.61
2023-05-10T18:47:15.770Z,84.14
2023-05-10T18:48:15.775Z,84.33
2023-05-10T18:49:15.987Z,84.33
2023-05-10T18:50:15.794Z,84.33
2023-05-10T18:51:15.797Z,84.33
2023-05-10T18:52:15.810Z,84.61
2023-05-10T18:53:15.811Z,84.71
2023-05-10T18:54:15.826Z,84.42
2023-05-10T18:55:16.261Z,85.00
2023-05-10T18:56:15.836Z,84.71
2023-05-10T18:57:15.847Z,84.91
2023-05-10T18:58:15.859Z,85.58
2023-05-10T18:59:15.864Z,85.38
2023-05-10T19:00:15.875Z,85.67
2023-05-10T19:01:17.192Z,85.38
2023-05-10T19:02:15.932Z,85.28
2023-05-10T19:03:15.903Z,85.77
2023-05-10T19:04:15.989Z,85.72
2023-05-10T19:05:16.312Z,85.72
2023-05-10T19:06:15.928Z,85.67
2023-05-10T19:07:15.943Z,85.67
2023-05-10T19:08:15.950Z,85.63
2023-05-10T19:09:15.956Z,85.63
2023-05-10T19:10:15.981Z,85.44
2023-05-10T19:11:15.990Z,85.25
2023-05-10T19:12:15.973Z,85.34
2023-05-10T19:13:15.993Z,85.25
2023-05-10T19:14:15.999Z,85.82
2023-05-10T19:15:17.661Z,86.01
2023-05-10T19:16:16.112Z,86.01
2023-05-10T19:17:16.058Z,86.01
2023-05-10T19:18:16.235Z,85.72
2023-05-10T19:19:16.044Z,85.92
2023-05-10T19:20:16.536Z,85.92
2023-05-10T19:21:16.176Z,85.92
2023-05-10T19:22:16.065Z,86.40
2023-05-10T19:23:16.119Z,86.30
2023-05-10T19:24:16.085Z,86.30
2023-05-10T19:25:16.304Z,86.78
2023-05-10T19:26:16.170Z,86.40
2023-05-10T19:27:16.139Z,86.40
2023-05-10T19:28:16.125Z,86.30
2023-05-10T19:29:16.122Z,86.11
2023-05-10T19:30:16.135Z,86.68
2023-05-10T19:31:16.188Z,86.40
2023-05-10T19:32:16.149Z,86.68
2023-05-10T19:33:16.170Z,86.49
2023-05-10T19:34:16.164Z,86.49
2023-05-10T19:35:16.488Z,86.78
2023-05-10T19:36:16.188Z,87.26
2023-05-10T19:38:03.742Z,87.16
2023-05-10T19:39:03.750Z,87.16
2023-05-10T19:40:03.769Z,86.88
2023-05-10T19:41:03.781Z,87.35
2023-05-10T19:42:03.778Z,87.02
2023-05-10T19:43:03.811Z,87.35
2023-05-10T19:44:03.795Z,88.12
2023-05-10T19:45:03.815Z,88.02
2023-05-10T19:46:03.808Z,87.55
2023-05-10T19:47:03.873Z,87.74
2023-05-10T19:48:03.915Z,87.64
2023-05-10T19:49:03.842Z,87.93
2023-05-10T19:50:03.884Z,87.74
2023-05-10T19:51:03.860Z,87.45
2023-05-10T19:52:03.852Z,87.45
2023-05-10T19:53:03.875Z,87.55
2023-05-10T19:54:03.902Z,87.64
2023-05-10T19:55:03.882Z,88.12
2023-05-10T19:56:03.897Z,88.12
2023-05-10T19:57:03.898Z,88.12
2023-05-10T19:58:03.918Z,88.02
2023-05-10T19:59:03.963Z,88.41
2023-05-10T20:00:03.937Z,88.12
2023-05-10T20:01:04.034Z,88.02
2023-05-10T20:02:03.949Z,88.70
2023-05-10T20:03:03.966Z,88.60
2023-05-10T20:04:04.032Z,88.70
2023-05-10T20:05:03.961Z,88.70
2023-05-10T20:06:04.036Z,89.37
2023-05-10T20:07:03.984Z,89.08
2023-05-10T20:08:03.998Z,89.37
2023-05-10T20:09:04.013Z,89.27
2023-05-10T20:10:04.008Z,89.27
2023-05-10T20:11:04.059Z,89.75
2023-05-10T20:12:04.031Z,89.47
2023-05-10T20:13:04.042Z,89.65
2023-05-10T20:14:04.041Z,89.65
2023-05-10T20:15:04.073Z,90.14
2023-05-10T20:16:04.059Z,90.42
2023-05-10T20:17:04.163Z,90.04
2023-05-10T20:18:04.105Z,90.33
2023-05-10T20:19:04.157Z,90.14
2023-05-10T20:20:04.115Z,90.23
2023-05-10T20:21:04.120Z,90.14
2023-05-10T20:22:04.116Z,90.04
2023-05-10T20:23:04.168Z,90.61
2023-05-10T20:24:04.124Z,90.42
2023-05-10T20:25:04.134Z,90.23
2023-05-10T20:26:04.155Z,90.33
2023-05-10T20:27:04.155Z,90.52
2023-05-10T20:28:04.157Z,90.33
2023-05-10T20:29:04.175Z,90.42
2023-05-10T20:30:04.174Z,90.42
2023-05-10T20:31:04.258Z,90.33
2023-05-10T20:32:04.192Z,90.90
2023-05-10T20:33:04.312Z,91.28
2023-05-10T20:34:04.216Z,91.09
2023-05-10T20:35:04.225Z,91.00
2023-05-10T20:36:04.236Z,91.00
2023-05-10T20:37:04.244Z,90.71
2023-05-10T20:38:04.260Z,90.81
2023-05-10T20:39:04.259Z,90.95
2023-05-10T20:40:04.262Z,91.34
2023-05-10T20:41:04.283Z,91.43
2023-05-10T20:42:04.279Z,91.53
2023-05-10T20:43:04.298Z,91.43
2023-05-10T20:44:04.301Z,91.34
2023-05-10T20:45:04.320Z,91.34
2023-05-10T20:46:04.456Z,91.43
2023-05-10T20:47:04.357Z,91.53
2023-05-10T20:48:04.371Z,91.24
2023-05-10T20:49:04.344Z,91.63
2023-05-10T20:50:04.388Z,91.63
2023-05-10T20:51:04.360Z,91.91
2023-05-10T20:52:04.375Z,91.91
2023-05-10T20:53:04.381Z,91.72
2023-05-10T20:54:04.420Z,91.91
2023-05-10T20:55:04.416Z,92.10
2023-05-10T20:56:04.415Z,92.10
2023-05-10T20:57:04.406Z,91.72
2023-05-10T20:58:05.241Z,91.82
2023-05-10T20:59:04.443Z,91.91
2023-05-10T21:00:04.439Z,92.01
2023-05-10T21:01:04.446Z,92.77
2023-05-10T21:02:04.523Z,92.58
2023-05-10T21:03:04.560Z,92.68
2023-05-10T21:04:04.474Z,92.39
2023-05-10T21:05:04.499Z,92.58
2023-05-10T21:06:04.489Z,92.39
2023-05-10T21:07:04.499Z,93.06
2023-05-10T21:08:04.507Z,92.87
2023-05-10T21:09:04.508Z,93.06
2023-05-10T21:10:04.535Z,92.77
2023-05-10T21:11:04.531Z,92.68
2023-05-10T21:12:04.553Z,92.77
2023-05-10T21:13:04.543Z,92.68
2023-05-10T21:14:04.566Z,93.06
2023-05-10T21:15:04.563Z,93.35
2023-05-10T21:16:04.616Z,93.06
2023-05-10T21:17:04.577Z,92.87
2023-05-10T21:18:04.682Z,93.06
2023-05-10T21:19:04.719Z,92.87
2023-05-10T21:20:04.690Z,93.06
2023-05-10T21:21:04.616Z,93.44
2023-05-10T21:22:04.620Z,93.63
2023-05-10T21:23:04.634Z,93.83
2023-05-10T21:24:04.636Z,93.63
2023-05-10T21:25:04.649Z,93.63
2023-05-10T21:26:04.706Z,93.59
2023-05-10T21:27:04.676Z,93.49
2023-05-10T21:28:04.677Z,93.63
2023-05-10T21:29:04.720Z,93.44
2023-05-10T21:30:04.822Z,93.63
2023-05-10T21:31:04.708Z,93.63
2023-05-10T21:32:04.888Z,93.54
2023-05-10T21:33:04.943Z,93.83
2023-05-10T21:34:04.722Z,94.02
2023-05-10T21:35:04.760Z,93.73
2023-05-10T21:36:04.842Z,94.12
2023-05-10T21:37:04.754Z,93.73
2023-05-10T21:38:04.765Z,94.21
2023-05-10T21:39:04.771Z,94.12
2023-05-10T21:41:04.796Z,94.02
2023-05-10T21:42:04.831Z,93.93
2023-05-10T21:43:04.804Z,94.02
2023-05-10T21:44:04.816Z,93.83
2023-05-10T21:45:04.821Z,93.93
2023-05-10T21:46:04.938Z,93.83
2023-05-10T21:47:04.832Z,93.93
2023-05-10T21:48:04.869Z,93.83
2023-05-10T21:49:04.856Z,94.02
2023-05-10T21:50:04.867Z,94.21
2023-05-10T21:51:04.901Z,94.26
2023-05-10T21:52:04.922Z,94.69
2023-05-10T21:53:04.896Z,94.69
2023-05-10T21:54:04.891Z,94.79
2023-05-10T21:55:04.910Z,94.35
2023-05-10T21:56:04.905Z,94.50
2023-05-10T21:57:04.925Z,94.69
2023-05-10T21:58:04.924Z,94.69
2023-05-10T21:59:04.958Z,94.21
2023-05-10T22:00:04.938Z,94.31
2023-05-10T22:01:04.994Z,94.79
2023-05-10T22:02:05.010Z,94.89
2023-05-10T22:03:05.088Z,95.03
2023-05-10T22:04:04.976Z,94.89
2023-05-10T22:05:04.980Z,94.89
2023-05-10T22:06:05.001Z,94.98
2023-05-10T22:07:05.028Z,94.69
2023-05-10T22:08:05.008Z,95.07
2023-05-10T22:09:05.013Z,95.07
2023-05-10T22:10:05.022Z,94.89
2023-05-10T22:11:05.073Z,95.17
2023-05-10T22:12:05.058Z,94.98
2023-05-10T22:13:05.064Z,94.98
2023-05-10T22:14:05.057Z,95.17
2023-05-10T22:16:05.075Z,94.69
2023-05-10T22:17:05.159Z,94.79
2023-05-10T22:18:05.192Z,94.89
2023-05-10T22:19:05.225Z,94.79
2023-05-10T22:20:05.102Z,95.07
2023-05-10T22:21:05.126Z,95.07
2023-05-10T22:22:05.122Z,94.79
2023-05-10T22:23:05.162Z,95.07
2023-05-10T22:24:05.145Z,94.79
2023-05-10T22:25:05.153Z,95.17
2023-05-10T22:26:05.156Z,94.59
2023-05-10T22:27:05.167Z,94.79
2023-05-10T22:28:05.180Z,94.89
2023-05-10T22:29:05.189Z,94.50
2023-05-10T22:30:05.200Z,95.07
2023-05-10T22:31:05.249Z,94.64
2023-05-10T22:32:05.223Z,94.79
2023-05-10T22:33:05.261Z,94.79
2023-05-10T22:34:05.236Z,94.59
2023-05-10T22:35:05.250Z,94.59
2023-05-10T22:36:05.247Z,94.45
2023-05-10T22:37:05.256Z,95.03
2023-05-10T22:38:05.269Z,95.03
2023-05-10T22:39:05.284Z,94.64
2023-05-10T22:40:05.325Z,94.74
2023-05-10T22:41:05.287Z,94.64
2023-05-10T22:42:05.314Z,95.31
2023-05-10T22:43:05.306Z,95.60
2023-05-10T22:44:05.312Z,95.31
2023-05-10T22:45:05.319Z,95.31
2023-05-10T22:46:05.359Z,95.51
2023-05-10T22:47:05.333Z,95.70
2023-05-10T22:48:05.428Z,95.41
2023-05-10T22:49:05.354Z,95.31
2023-05-10T22:50:05.364Z,95.60
2023-05-10T22:51:05.371Z,96.18
2023-05-10T22:52:05.373Z,96.37
2023-05-10T22:53:05.388Z,96.27
2023-05-10T22:54:05.389Z,95.98
2023-05-10T22:55:05.434Z,96.56
2023-05-10T22:56:05.415Z,96.56
2023-05-10T22:57:05.412Z,96.08
2023-05-10T22:58:05.420Z,95.79
2023-05-10T22:59:05.437Z,96.47
2023-05-10T23:00:05.436Z,96.08
2023-05-10T23:01:05.460Z,96.47
2023-05-10T23:02:05.517Z,96.84
2023-05-10T23:03:05.494Z,96.75
2023-05-10T23:04:05.475Z,96.66
2023-05-10T23:05:05.586Z,96.66
2023-05-10T23:06:05.496Z,96.84
2023-05-10T23:07:05.507Z,96.94
2023-05-10T23:08:05.513Z,97.04
2023-05-10T23:09:05.522Z,97.04
2023-05-10T23:10:05.520Z,97.23
2023-05-10T23:11:05.548Z,97.14
2023-05-10T23:12:05.548Z,97.04
2023-05-10T23:13:05.544Z,96.94
2023-05-10T23:14:05.555Z,97.33
2023-05-10T23:15:05.569Z,97.23
2023-05-10T23:16:05.662Z,97.90
2023-05-10T23:17:05.593Z,97.80
2023-05-10T23:18:05.640Z,97.61
2023-05-10T23:19:05.648Z,97.90
2023-05-10T23:20:05.610Z,98.47
2023-05-10T23:21:05.617Z,98.47
2023-05-10T23:22:05.638Z,98.67
2023-05-10T23:23:05.635Z,98.86
2023-05-10T23:24:05.674Z,98.96
2023-05-10T23:25:05.670Z,99.72
2023-05-10T23:26:05.665Z,99.34
2023-05-10T23:27:05.683Z,99.34
2023-05-10T23:28:05.675Z,99.91
2023-05-10T23:29:05.705Z,99.72
2023-05-10T23:30:05.690Z,99.53
2023-05-10T23:31:05.717Z,99.99
2023-05-10T23:32:05.759Z,99.99
2023-05-10T23:33:05.812Z,99.99
2023-05-10T23:34:05.718Z,99.82
2023-05-10T23:35:05.731Z,99.99
2023-05-10T23:36:05.747Z,99.99
2023-05-10T23:37:05.745Z,99.99
2023-05-10T23:38:05.759Z,99.63
2023-05-10T23:39:05.777Z,99.91
2023-05-10T23:40:05.773Z,99.99
2023-05-10T23:41:05.780Z,99.99
2023-05-10T23:42:05.797Z,99.99
2023-05-10T23:43:05.823Z,99.99
2023-05-10T23:44:05.811Z,99.99
2023-05-10T23:45:05.819Z,99.99
2023-05-10T23:46:05.945Z,99.99
2023-05-10T23:47:05.836Z,99.99
2023-05-10T23:48:05.876Z,99.99
2023-05-10T23:49:05.854Z,99.99
2023-05-10T23:50:05.866Z,99.99
2023-05-10T23:51:05.875Z,99.99
2023-05-10T23:52:05.890Z,99.99
2023-05-10T23:53:05.879Z,99.99
2023-05-10T23:54:05.897Z,99.99
2023-05-10T23:55:05.904Z,99.99
2023-05-10T23:56:05.912Z,99.99
2023-05-10T23:57:05.916Z,99.99
2023-05-10T23:58:05.933Z,99.99
2023-05-10T23:59:06.062Z,99.99
